Time;durP1;ratioP1;P1;durP2;ratioP2;P2;SDS_P1;SDS_P2;PMS_P1;PMS_P2;Temp;Humidity;BMP_temperature;BMP_pressure;BME280_temperature;BME280_humidity;BME280_pressure;Samples;Min_cycle;Max_cycle;Signal;HPM_P1;HPM_P2
2021/01/29 00:00:13;;;;;;;44.92;19.02;;;;;;;18.60;46.18;99776.03;5093089;28;20036;-70
2021/01/29 00:02:39;;;;;;;39.72;18.60;;;;;;;18.67;45.98;99769.50;5092077;28;20104;-69
2021/01/29 00:05:06;;;;;;;37.08;17.95;;;;;;;18.49;46.47;99759.00;5092917;28;20115;-70
2021/01/29 00:07:31;;;;;;;44.75;19.63;;;;;;;18.48;46.39;99751.97;5092824;28;20598;-70
2021/01/29 00:09:57;;;;;;;42.83;18.63;;;;;;;18.54;46.30;99743.84;5092000;28;20119;-70
2021/01/29 00:12:24;;;;;;;44.97;20.80;;;;;;;18.57;46.39;99737.88;5093053;28;20109;-70
2021/01/29 00:14:49;;;;;;;46.60;18.38;;;;;;;18.46;46.93;99743.31;5074125;28;20071;-69
2021/01/29 00:17:15;;;;;;;51.47;18.50;;;;;;;18.53;46.85;99732.19;5074453;28;20083;-71
2021/01/29 00:19:41;;;;;;;52.17;18.93;;;;;;;18.70;46.31;99723.75;5092123;28;20043;-70
2021/01/29 00:22:07;;;;;;;52.25;18.77;;;;;;;18.74;46.28;99711.28;5092603;28;20265;-70
2021/01/29 00:24:33;;;;;;;44.25;19.40;;;;;;;18.47;46.95;99704.34;5092825;28;20036;-71
2021/01/29 00:26:59;;;;;;;60.25;20.80;;;;;;;18.70;46.27;99693.97;5092146;28;20083;-70
2021/01/29 00:29:25;;;;;;;53.25;20.30;;;;;;;18.58;46.55;99685.34;5074608;28;20044;-71
2021/01/29 00:31:50;;;;;;;64.23;20.90;;;;;;;18.61;46.61;99680.19;5091772;28;20042;-71
2021/01/29 00:34:16;;;;;;;51.03;19.23;;;;;;;18.61;46.84;99665.81;5092646;28;20024;-70
2021/01/29 00:36:42;;;;;;;61.30;21.83;;;;;;;18.57;46.85;99662.88;5091948;28;20032;-69
2021/01/29 00:39:08;;;;;;;58.13;19.63;;;;;;;18.65;46.70;99657.97;5091269;28;20043;-70
2021/01/29 00:41:33;;;;;;;66.50;22.10;;;;;;;18.58;46.89;99644.72;5092284;28;20265;-70
2021/01/29 00:43:59;;;;;;;68.80;23.17;;;;;;;18.82;46.50;99642.19;5091806;28;20042;-69
2021/01/29 00:46:24;;;;;;;61.67;20.77;;;;;;;18.69;46.66;99630.06;5074303;28;20086;-69
2021/01/29 00:48:50;;;;;;;60.67;21.75;;;;;;;18.77;46.66;99634.06;5073594;28;20036;-69
2021/01/29 00:51:16;;;;;;;67.00;22.00;;;;;;;18.27;48.05;99625.94;5074293;28;20043;-70
2021/01/29 00:53:43;;;;;;;62.90;21.67;;;;;;;18.54;47.22;99617.38;5091806;28;20054;-68
2021/01/29 00:56:16;;;;;;;54.97;19.63;;;;;;;18.70;47.14;99620.84;5074089;28;20535;-69
2021/01/29 00:58:58;;;;;;;55.90;19.90;;;;;;;18.80;46.62;99619.16;5073409;28;20333;-69
2021/01/29 01:01:52;;;;;;;57.30;20.73;;;;;;;18.88;46.49;99605.00;5074045;28;20036;-69
2021/01/29 01:04:18;;;;;;;64.30;22.42;;;;;;;18.55;47.31;99610.09;5091911;28;20044;-69
2021/01/29 01:06:44;;;;;;;75.93;22.60;;;;;;;18.62;47.09;99597.88;5091391;28;20040;-69
2021/01/29 01:09:36;;;;;;;75.07;22.33;;;;;;;18.79;46.65;99593.97;5060282;28;20048;-69
2021/01/29 01:12:04;;;;;;;60.25;22.67;;;;;;;18.95;46.40;99600.09;5073191;28;20496;-69
2021/01/29 01:14:50;;;;;;;57.00;22.30;;;;;;;18.43;47.65;99575.25;5090231;28;20125;-69
2021/01/29 01:17:42;;;;;;;60.10;22.10;;;;;;;18.53;47.91;99577.09;5073143;28;20047;-65
2021/01/29 01:20:15;;;;;;;66.80;22.17;;;;;;;18.60;47.53;99567.56;5091765;28;20056;-69
2021/01/29 01:22:41;;;;;;;56.45;21.35;;;;;;;18.74;47.10;99556.09;5091435;28;20115;-61
2021/01/29 01:25:33;;;;;;;49.00;20.63;;;;;;;18.86;46.82;99551.13;5087349;28;20048;-69
2021/01/29 01:28:03;;;;;;;49.13;20.02;;;;;;;18.74;47.08;99545.25;5056905;28;20126;-69
2021/01/29 01:30:38;;;;;;;62.75;20.40;;;;;;;18.71;47.34;99543.13;5057849;28;20043;-69
2021/01/29 01:33:11;;;;;;;49.33;19.77;;;;;;;18.95;46.72;99539.69;5072043;28;20492;-69
2021/01/29 01:35:54;;;;;;;69.15;23.23;;;;;;;18.90;47.09;99530.50;5090803;28;20051;-69
2021/01/29 01:38:30;;;;;;;74.78;22.20;;;;;;;18.78;47.77;99521.94;5073522;28;20046;-69
2021/01/29 01:40:57;;;;;;;68.85;21.77;;;;;;;18.35;49.43;99517.09;5063950;28;20475;-69
2021/01/29 01:43:28;;;;;;;69.55;23.88;;;;;;;18.60;48.77;99510.72;5037680;28;20035;-69
2021/01/29 01:46:18;;;;;;;66.60;21.45;;;;;;;17.68;52.15;99506.53;5051561;28;20052;-69
2021/01/29 01:49:12;;;;;;;73.70;23.30;;;;;;;17.77;52.71;99491.38;5070400;28;20400;-69
2021/01/29 01:52:18;;;;;;;54.30;20.70;;;;;;;18.52;49.72;99483.44;5058572;28;20053;-68
2021/01/29 01:55:09;;;;;;;52.92;20.73;;;;;;;18.69;49.28;99475.72;5074150;28;20048;-68
2021/01/29 01:57:44;;;;;;;70.05;21.02;;;;;;;18.90;48.52;99479.06;5057291;28;20032;-68
2021/01/29 02:00:19;;;;;;;52.47;20.23;;;;;;;18.91;48.41;99459.00;5075206;28;20044;-68
2021/01/29 02:03:12;;;;;;;61.80;20.40;;;;;;;19.02;47.93;99459.75;5074485;28;20075;-69
2021/01/29 02:05:59;;;;;;;53.55;19.80;;;;;;;19.12;47.77;99452.59;5056625;28;20435;-69
2021/01/29 02:08:40;;;;;;;59.90;22.05;;;;;;;19.08;48.08;99444.25;5057143;28;20121;-69
2021/01/29 02:11:23;;;;;;;45.08;18.90;;;;;;;18.85;48.94;99438.47;5075310;28;20051;-69
2021/01/29 02:14:05;;;;;;;60.20;21.08;;;;;;;18.99;48.40;99430.50;5056407;28;20246;-69
2021/01/29 02:17:10;;;;;;;55.05;19.77;;;;;;;18.83;49.30;99415.47;5056931;28;20044;-70
2021/01/29 02:20:13;;;;;;;62.88;21.02;;;;;;;19.04;48.71;99410.72;5060275;28;20048;-70
2021/01/29 02:23:13;;;;;;;88.88;22.70;;;;;;;19.18;48.69;99399.97;5075009;28;20037;-70
2021/01/29 02:26:25;;;;;;;124.65;25.17;;;;;;;19.20;48.94;99387.75;5036073;28;20048;-71
2021/01/29 02:29:16;;;;;;;162.38;25.75;;;;;;;19.06;49.76;99381.41;5056480;28;20052;-69
2021/01/29 02:32:01;;;;;;;138.88;24.42;;;;;;;19.19;49.54;99374.50;5040603;28;20055;-68
2021/01/29 02:34:48;;;;;;;197.10;26.80;;;;;;;19.22;49.53;99368.50;5056767;28;20048;-70
2021/01/29 02:37:38;;;;;;;142.52;24.38;;;;;;;19.32;48.68;99352.09;5056226;28;20068;-70
2021/01/29 02:40:52;;;;;;;184.88;26.80;;;;;;;19.33;49.10;99342.88;5047539;28;20052;-70
2021/01/29 02:43:43;;;;;;;117.05;22.85;;;;;;;19.58;48.30;99332.78;5056363;28;20495;-68
2021/01/29 02:46:52;;;;;;;72.97;18.98;;;;;;;19.86;47.37;99322.09;5074417;28;20071;-70
2021/01/29 02:49:46;;;;;;;;;;;;;;;19.68;48.12;99314.78;5074900;28;20525;-69
2021/01/29 02:52:43;;;;;;;99.13;22.05;;;;;;;19.67;48.71;99305.03;5022781;28;19920;-68
2021/01/29 02:56:01;;;;;;;53.38;19.00;;;;;;;19.97;47.25;99294.81;5032707;28;20168;-68
2021/01/29 02:58:42;;;;;;;124.25;22.08;;;;;;;19.55;49.81;99295.41;5015171;28;20072;-68
2021/01/29 03:01:46;;;;;;;117.43;21.70;;;;;;;19.67;49.80;99283.31;5073318;28;20048;-68
2021/01/29 03:05:00;;;;;;;256.60;27.77;;;;;;;19.14;52.29;99268.88;5073751;28;20044;-68
2021/01/29 03:07:52;;;;;;;228.63;26.83;;;;;;;20.43;100.00;99266.09;5056132;28;20064;-67
2021/01/29 03:10:39;;;;;;;191.93;25.17;;;;;;;19.76;57.06;99257.97;5074059;28;20082;-67
2021/01/29 03:13:34;;;;;;;38.00;17.10;;;;;;;22.80;44.59;99244.59;5058816;28;20101;-67
2021/01/29 03:16:27;;;;;;;49.17;18.13;;;;;;;22.13;46.47;99241.75;5058595;28;20067;-66
2021/01/29 03:19:19;;;;;;;41.95;17.85;;;;;;;28.47;32.29;99245.31;5073251;28;20051;-67
2021/01/29 03:22:13;;;;;;;40.78;16.45;;;;;;;28.99;31.28;99237.91;5038051;28;20139;-65
2021/01/29 03:25:05;;;;;;;47.50;17.95;;;;;;;27.74;33.24;99232.47;5037979;28;20162;-67
2021/01/29 03:28:04;;;;;;;38.33;15.82;;;;;;;28.25;32.30;99227.50;5029192;28;20049;-66
2021/01/29 03:30:51;;;;;;;47.00;16.92;;;;;;;27.73;33.23;99219.09;5053417;28;20086;-67
2021/01/29 03:33:38;;;;;;;39.15;16.70;;;;;;;27.91;33.10;99212.16;5038675;28;20603;-67
2021/01/29 03:36:28;;;;;;;44.28;17.23;;;;;;;28.90;31.27;99207.03;5053299;28;20106;-66
2021/01/29 03:39:20;;;;;;;37.40;16.38;;;;;;;26.89;34.66;99196.72;5052809;28;20494;-67
2021/01/29 03:42:04;;;;;;;40.70;17.30;;;;;;;26.81;35.39;99192.16;5052612;28;20055;-68
2021/01/29 03:44:54;;;;;;;36.22;15.98;;;;;;;26.39;36.42;99182.25;5038269;28;20381;-68
2021/01/29 03:47:55;;;;;;;66.90;15.98;;;;;;;30.27;35.25;99186.03;5053109;28;20117;-65
2021/01/29 03:50:49;;;;;;;38.53;14.45;;;;;;;29.11;31.48;99179.19;5024987;28;20106;-64
2021/01/29 03:53:33;;;;;;;23.92;9.45;;;;;;;26.68;37.79;99164.75;5053256;28;20048;-64
2021/01/29 03:56:30;;;;;;;19.48;9.23;;;;;;;25.30;43.42;99162.16;5052512;28;20132;-64
2021/01/29 03:59:49;;;;;;;77.60;12.60;;;;;;;28.04;34.84;99162.59;5052703;28;20237;-65
2021/01/29 04:02:51;;;;;;;27.43;14.10;;;;;;;26.39;37.48;99152.91;5053402;28;20144;-64
2021/01/29 04:06:02;;;;;;;42.33;13.98;;;;;;;28.07;35.67;99145.41;5053133;28;20285;-64
2021/01/29 04:09:06;;;;;;;24.58;10.20;;;;;;;27.32;35.84;99140.34;5037995;28;20155;-65
2021/01/29 04:12:06;;;;;;;20.63;8.60;;;;;;;25.97;38.23;99128.44;5052162;28;20048;-64
2021/01/29 04:14:54;;;;;;;26.92;9.30;;;;;;;24.90;40.45;99114.22;5034915;28;20064;-65
2021/01/29 04:17:29;;;;;;;30.15;11.48;;;;;;;25.61;42.66;99115.19;5034935;28;20056;-64
2021/01/29 04:20:02;;;;;;;31.05;15.65;;;;;;;23.56;100.00;99107.03;5036623;28;20041;-65
2021/01/29 04:22:36;;;;;;;15.63;7.50;;;;;;;13.48;100.00;99090.72;5051471;28;20032;-65
2021/01/29 04:25:11;;;;;;;22.98;10.82;;;;;;;13.46;100.00;99093.63;5051957;28;20445;-65
2021/01/29 04:27:39;;;;;;;37.85;13.27;;;;;;;13.25;100.00;99084.59;5051437;28;20071;-65
2021/01/29 04:30:18;;;;;;;28.10;9.93;;;;;;;13.24;100.00;99082.97;5052109;28;20032;-64
2021/01/29 04:32:49;;;;;;;31.55;10.88;;;;;;;13.37;100.00;99075.53;5051537;28;20040;-64
2021/01/29 04:35:19;;;;;;;30.85;10.45;;;;;;;12.59;100.00;99078.38;5052047;28;20178;-63
2021/01/29 04:38:17;;;;;;;31.38;9.88;;;;;;;13.13;100.00;99078.59;5051242;28;20131;-63
2021/01/29 04:41:07;;;;;;;36.55;10.00;;;;;;;13.07;100.00;99068.88;5052584;28;20068;-64
2021/01/29 04:43:55;;;;;;;24.02;10.23;;;;;;;13.12;100.00;99068.91;5051494;28;20424;-64
2021/01/29 04:46:39;;;;;;;21.33;10.15;;;;;;;13.16;100.00;99064.69;5050471;28;20400;-64
2021/01/29 04:49:16;;;;;;;20.33;10.40;;;;;;;13.21;100.00;99059.34;5050584;28;20127;-64
2021/01/29 04:51:53;;;;;;;24.85;12.18;;;;;;;13.05;100.00;99063.78;5052231;28;20037;-64
2021/01/29 04:54:46;;;;;;;33.42;13.20;;;;;;;15.47;100.00;99063.06;5051742;28;20346;-64
2021/01/29 04:57:44;;;;;;;28.50;13.50;;;;;;;16.08;100.00;99049.72;5051549;28;20370;-64
2021/01/29 05:00:41;;;;;;;36.35;14.48;;;;;;;19.81;65.67;99031.94;5017039;28;20455;-63
2021/01/29 05:03:37;;;;;;;42.08;13.57;;;;;;;20.09;63.27;99040.13;5051861;28;20106;-64
2021/01/29 05:06:39;;;;;;;25.55;10.73;;;;;;;18.39;100.00;99068.91;5051712;28;20052;-62
2021/01/29 05:09:49;;;;;;;33.50;10.30;;;;;;;16.96;100.00;99064.63;5028439;28;20040;-63
2021/01/29 05:12:51;;;;;;;23.83;10.50;;;;;;;16.06;100.00;99070.78;5034646;28;20041;-63
2021/01/29 05:15:45;;;;;;;18.80;7.05;;;;;;;15.17;100.00;99058.50;5051138;28;20036;-64
2021/01/29 05:18:26;;;;;;;24.77;8.60;;;;;;;15.48;100.00;99061.19;5051267;28;20041;-63
2021/01/29 05:21:04;;;;;;;20.65;7.95;;;;;;;15.58;100.00;99071.94;5065183;28;20091;-64
2021/01/29 05:24:04;;;;;;;14.05;7.35;;;;;;;15.58;100.00;99053.09;5054233;28;20071;-63
2021/01/29 05:26:57;;;;;;;20.92;8.05;;;;;;;16.68;98.33;99059.69;5071545;28;20044;-63
2021/01/29 05:29:41;;;;;;;27.42;8.90;;;;;;;16.41;95.39;99055.53;5071139;28;20239;-64
2021/01/29 05:32:31;;;;;;;34.78;11.32;;;;;;;16.13;95.54;99048.91;5071391;28;20036;-64
2021/01/29 05:35:24;;;;;;;51.15;16.23;;;;;;;16.33;92.66;99048.00;5055131;28;20070;-65
2021/01/29 05:38:13;;;;;;;35.40;13.55;;;;;;;16.40;92.61;99048.53;5071913;28;20116;-65
2021/01/29 05:41:20;;;;;;;48.13;15.98;;;;;;;15.79;97.38;99050.34;5034016;28;20051;-66
2021/01/29 05:44:19;;;;;;;59.10;19.63;;;;;;;15.47;100.00;99051.50;5033816;28;20155;-65
2021/01/29 05:47:06;;;;;;;81.65;22.13;;;;;;;16.06;95.37;99046.50;5099107;28;20036;-66
2021/01/29 05:49:45;;;;;;;64.28;18.00;;;;;;;15.81;100.00;99047.38;5078822;28;20137;-66
2021/01/29 05:52:29;;;;;;;73.85;21.80;;;;;;;15.72;100.00;99049.84;5100244;28;20434;-65
2021/01/29 05:55:09;;;;;;;2.35;1.90;;;;;;;15.96;96.78;99050.03;5075900;28;20043;-65
2021/01/29 05:57:59;;;;;;;66.60;21.42;;;;;;;16.25;93.08;99062.06;5091950;28;20032;-65
2021/01/29 06:00:49;;;;;;;51.60;14.65;;;;;;;16.13;93.19;99055.09;5091149;28;20046;-64
2021/01/29 06:03:34;;;;;;;42.15;11.77;;;;;;;15.89;95.61;99055.72;5072890;28;20058;-64
2021/01/29 06:06:11;;;;;;;27.77;9.70;;;;;;;16.27;93.44;99049.13;5073596;28;20044;-65
2021/01/29 06:08:47;;;;;;;45.65;14.18;;;;;;;16.29;90.53;99058.56;5073784;28;20052;-65
2021/01/29 06:11:15;;;;;;;32.65;9.77;;;;;;;15.85;96.30;99053.84;5091256;28;20040;-64
2021/01/29 06:14:05;;;;;;;39.55;11.60;;;;;;;15.23;100.00;99043.16;5080160;28;20449;-65
2021/01/29 06:16:59;;;;;;;50.65;15.02;;;;;;;16.16;93.44;99051.88;5070533;28;20424;-66
2021/01/29 06:19:36;;;;;;;40.00;12.55;;;;;;;15.88;94.92;99056.81;5052437;28;20037;-64
2021/01/29 06:22:14;;;;;;;57.20;16.83;;;;;;;15.60;95.71;99061.69;5053137;28;20041;-65
2021/01/29 06:24:58;;;;;;;47.88;14.85;;;;;;;15.29;100.00;99055.53;5071296;28;20037;-64
2021/01/29 06:27:55;;;;;;;33.67;10.73;;;;;;;15.36;99.81;99041.81;5036211;28;20045;-64
2021/01/29 06:30:26;;;;;;;35.65;11.50;;;;;;;15.32;100.00;99057.69;5070707;28;20086;-64
2021/01/29 06:33:15;;;;;;;45.95;13.30;;;;;;;15.62;98.60;99056.06;5071142;28;20570;-64
2021/01/29 06:36:03;;;;;;;33.58;9.68;;;;;;;14.64;100.00;99054.13;5071349;28;20119;-64
2021/01/29 06:38:28;;;;;;;;;;;;;;;22.06;51.87;99057.09;5088568;28;20448;-65
2021/01/29 06:41:03;;;;;;;31.20;11.70;;;;;;;16.42;79.54;99094.91;5095141;28;19944;-66
2021/01/29 06:43:54;;;;;;;40.42;12.98;;;;;;;16.11;86.16;99056.47;5076271;28;20036;-65
2021/01/29 06:46:45;;;;;;;27.38;9.20;;;;;;;15.45;92.89;99064.41;5076026;28;20036;-65
2021/01/29 06:49:16;;;;;;;51.63;14.95;;;;;;;15.45;94.27;99062.53;5094385;28;20063;-62
2021/01/29 06:52:16;;;;;;;31.17;10.07;;;;;;;15.51;92.86;99054.44;5094808;28;20101;-65
2021/01/29 06:54:53;;;;;;;70.22;15.65;;;;;;;16.01;89.96;99063.50;5094671;28;20093;-65
2021/01/29 06:57:50;;;;;;;33.15;10.63;;;;;;;15.13;100.00;99060.13;5076082;28;20036;-64
2021/01/29 07:00:28;;;;;;;24.50;8.63;;;;;;;15.30;99.39;99082.22;5078227;28;20119;-65
2021/01/29 07:02:56;;;;;;;;;;;;;;;15.39;100.00;99071.72;5076953;28;20075;-65
2021/01/29 07:05:51;;;;;;;25.85;6.20;;;;;;;20.77;58.35;99075.56;5093562;28;19912;-64
2021/01/29 07:08:38;;;;;;;31.83;5.75;;;;;;;19.10;74.01;99078.19;5093831;28;20040;-64
2021/01/29 07:11:34;;;;;;;27.02;6.60;;;;;;;14.71;100.00;99060.09;5094768;28;20075;-65
2021/01/29 07:14:18;;;;;;;35.78;8.23;;;;;;;15.38;97.84;99066.59;5094065;28;20044;-66
2021/01/29 07:17:02;;;;;;;26.52;6.00;;;;;;;14.57;100.00;99062.47;5081184;28;20115;-64
2021/01/29 07:20:01;;;;;;;26.45;6.00;;;;;;;14.81;100.00;99070.06;5055146;28;20071;-63
2021/01/29 07:22:59;;;;;;;20.63;6.60;;;;;;;15.55;93.60;99072.50;5001018;28;20177;-63
2021/01/29 07:25:52;;;;;;;23.73;6.32;;;;;;;15.04;100.00;99079.53;5073408;28;20451;-64
2021/01/29 07:28:58;;;;;;;28.67;8.85;;;;;;;14.42;100.00;99082.06;5073171;28;20033;-64
2021/01/29 07:31:27;;;;;;;60.88;17.52;;;;;;;14.80;100.00;99071.13;5073213;28;20480;-64
2021/01/29 07:33:59;;;;;;;56.20;14.82;;;;;;;15.38;100.00;99080.88;5073927;28;20035;-64
2021/01/29 07:36:49;;;;;;;51.80;13.50;;;;;;;16.17;93.28;99090.41;5072780;28;20551;-64
2021/01/29 07:39:52;;;;;;;54.30;12.73;;;;;;;14.87;100.00;99090.53;5054735;28;20098;-62
2021/01/29 07:42:45;;;;;;;45.63;13.18;;;;;;;23.56;53.94;99103.47;5072637;28;20039;-65
2021/01/29 07:45:34;;;;;;;58.80;16.00;;;;;;;20.96;56.66;99100.97;5055567;28;20041;-64
2021/01/29 07:48:37;;;;;;;26.83;8.05;;;;;;;20.92;56.01;99117.91;5073041;28;20045;-64
2021/01/29 07:51:12;;;;;;;36.95;8.70;;;;;;;20.40;58.85;99118.16;5055092;28;20028;-64
2021/01/29 07:54:11;;;;;;;53.25;12.13;;;;;;;15.14;100.00;99115.59;5063082;28;20035;-64
2021/01/29 07:57:04;;;;;;;37.88;9.40;;;;;;;14.14;100.00;99135.19;5078715;28;20036;-64
2021/01/29 07:59:55;;;;;;;35.42;8.15;;;;;;;14.96;100.00;99122.31;5101940;28;20040;-64
2021/01/29 08:03:08;;;;;;;49.28;12.35;;;;;;;21.67;100.00;99124.00;5099395;28;20062;-64
2021/01/29 08:05:49;;;;;;;51.65;11.65;;;;;;;21.81;52.54;99140.25;5029901;28;20038;-63
2021/01/29 08:08:25;;;;;;;60.17;12.35;;;;;;;20.53;55.13;99165.41;5103908;28;20088;-64
2021/01/29 08:10:54;;;;;;;50.25;11.38;;;;;;;20.83;55.82;99152.31;5103356;28;20442;-64
2021/01/29 08:13:38;;;;;;;41.05;10.38;;;;;;;20.16;58.17;99149.03;5099035;28;20032;-63
2021/01/29 08:16:25;;;;;;;72.43;16.08;;;;;;;14.01;100.00;99167.88;5082404;28;20051;-64
2021/01/29 08:19:02;;;;;;;60.67;14.63;;;;;;;13.93;100.00;99182.63;5102376;28;20107;-64
2021/01/29 08:21:35;;;;;;;;;;;;;;;14.02;100.00;99199.88;5101536;28;20077;-64
2021/01/29 08:24:10;;;;;;;66.03;15.15;;;;;;;13.78;100.00;99164.50;5099248;28;19916;-64
2021/01/29 08:27:06;;;;;;;86.68;13.90;;;;;;;16.15;90.25;99184.28;5101228;28;20058;-64
2021/01/29 08:29:54;;;;;;;83.82;13.60;;;;;;;13.94;100.00;99192.28;5102361;28;20063;-64
2021/01/29 08:32:52;;;;;;;71.85;14.32;;;;;;;15.40;95.94;99182.94;5097989;28;20968;-65
2021/01/29 08:38:04;;;;;;;83.57;12.10;;;;;;;12.82;100.00;99233.91;5076620;27;772601;-64
2021/01/29 08:40:44;;;;;;;71.35;8.82;;;;;;;14.32;100.00;99219.97;5078784;28;20044;-63
2021/01/29 08:43:28;;;;;;;73.78;9.40;;;;;;;13.66;100.00;99228.38;5079411;28;20045;-64
2021/01/29 08:46:17;;;;;;;58.08;7.45;;;;;;;15.54;100.00;99232.53;5079193;28;20449;-63
2021/01/29 08:48:56;;;;;;;65.45;8.35;;;;;;;14.87;100.00;99229.66;5076154;28;20036;-64
2021/01/29 08:51:36;;;;;;;70.20;8.90;;;;;;;14.95;97.17;99223.78;5068058;28;20044;-64
2021/01/29 08:54:40;;;;;;;72.00;12.02;;;;;;;14.29;100.00;99216.97;5068502;28;20037;-64
2021/01/29 08:57:21;;;;;;;57.38;8.25;;;;;;;14.37;100.00;99221.06;5036706;28;20055;-64
2021/01/29 08:59:48;;;;;;;68.90;10.73;;;;;;;14.48;100.00;99218.16;5068346;28;20037;-66
2021/01/29 09:02:38;;;;;;;72.72;10.43;;;;;;;14.44;100.00;99233.22;5068610;28;20146;-65
2021/01/29 09:05:11;;;;;;;102.43;12.77;;;;;;;14.41;100.00;99249.88;5068568;28;20032;-66
2021/01/29 09:07:43;;;;;;;69.93;12.25;;;;;;;14.39;100.00;99241.25;5067776;28;20036;-65
2021/01/29 09:10:08;;;;;;;70.63;13.13;;;;;;;14.55;100.00;99230.59;5067213;28;20043;-65
2021/01/29 09:12:36;;;;;;;76.70;12.67;;;;;;;14.50;99.68;99242.13;5075202;28;20404;-66
2021/01/29 09:15:13;;;;;;;57.90;11.85;;;;;;;13.57;100.00;99242.25;5078381;28;20032;-64
2021/01/29 09:17:56;;;;;;;89.72;12.30;;;;;;;13.84;100.00;99230.66;5077606;28;20122;-64
2021/01/29 09:20:27;;;;;;;86.90;17.27;;;;;;;14.11;100.00;99234.34;5078570;28;20048;-66
2021/01/29 09:23:23;;;;;;;107.50;21.27;;;;;;;14.58;95.98;99240.81;5075775;28;20141;-65
2021/01/29 09:25:55;;;;;;;93.90;17.75;;;;;;;14.42;100.00;99248.78;5078004;28;20130;-65
2021/01/29 09:28:38;;;;;;;78.97;13.02;;;;;;;13.90;100.00;99250.31;5077207;28;20163;-65
2021/01/29 09:31:20;;;;;;;92.60;19.48;;;;;;;14.30;98.97;99259.75;5077509;28;20032;-64
2021/01/29 09:34:00;;;;;;;85.82;15.95;;;;;;;14.20;100.00;99257.81;5074645;28;20484;-64
2021/01/29 09:36:30;;;;;;;111.32;17.83;;;;;;;14.47;95.00;99259.56;5077260;28;20048;-64
2021/01/29 09:39:01;;;;;;;97.93;15.85;;;;;;;14.71;96.17;99253.81;5076079;28;20041;-65
2021/01/29 09:41:31;;;;;;;84.57;17.52;;;;;;;14.62;96.09;99256.16;5056207;28;20102;-64
2021/01/29 09:44:10;;;;;;;98.63;18.48;;;;;;;14.60;93.38;99265.59;5075159;28;20124;-65
2021/01/29 09:46:42;;;;;;;76.43;15.60;;;;;;;13.28;100.00;99276.56;5076074;28;20107;-64
2021/01/29 09:49:12;;;;;;;94.00;17.70;;;;;;;14.20;100.00;99273.94;5061653;28;20079;-64
2021/01/29 09:51:43;;;;;;;83.72;16.88;;;;;;;14.69;98.94;99277.44;5061903;28;20346;-64
2021/01/29 09:54:34;;;;;;;75.32;18.15;;;;;;;14.51;96.16;99280.56;5061035;28;20040;-65
2021/01/29 09:57:16;;;;;;;71.55;13.38;;;;;;;14.41;96.22;99276.75;5061891;28;20044;-65
2021/01/29 09:59:53;;;;;;;84.05;19.33;;;;;;;14.67;93.85;99306.50;5061999;28;20094;-65
2021/01/29 10:02:59;;;;;;;97.82;18.50;;;;;;;14.74;91.79;99295.53;5062324;28;20032;-65
2021/01/29 10:05:30;;;;;;;70.85;12.95;;;;;;;14.52;97.79;99285.72;5051900;28;20044;-65
2021/01/29 10:08:02;;;;;;;72.38;13.77;;;;;;;13.79;100.00;99302.34;5063021;28;20063;-65
2021/01/29 10:10:42;;;;;;;79.20;13.18;;;;;;;14.00;100.00;99292.59;5059559;28;20439;-65
2021/01/29 10:13:16;;;;;;;80.32;12.10;;;;;;;14.48;96.05;99309.63;5059072;28;20044;-67
2021/01/29 10:15:45;;;;;;;89.72;16.63;;;;;;;14.86;97.33;99308.78;5053131;28;20347;-65
2021/01/29 10:18:21;;;;;;;72.38;12.43;;;;;;;15.00;88.40;99307.25;5053892;28;20104;-65
2021/01/29 10:20:46;;;;;;;60.77;11.37;;;;;;;14.91;96.10;99306.13;5053284;28;20335;-65
2021/01/29 10:23:37;;;;;;;52.03;9.38;;;;;;;15.62;91.59;99309.34;5052523;28;20282;-66
2021/01/29 10:26:17;;;;;;;70.97;9.63;;;;;;;14.95;95.98;99323.38;5053688;28;20044;-65
2021/01/29 10:29:16;;;;;;;57.30;8.00;;;;;;;14.91;96.73;99308.81;5053189;28;20321;-64
2021/01/29 10:31:50;;;;;;;52.47;9.03;;;;;;;15.14;94.27;99331.81;5052967;28;20328;-66
2021/01/29 10:34:52;;;;;;;47.27;8.50;;;;;;;14.44;98.00;99313.91;5053396;28;20348;-65
2021/01/29 10:37:36;;;;;;;54.33;9.23;;;;;;;14.23;100.00;99323.69;5034230;28;20293;-66
2021/01/29 10:40:33;;;;;;;54.13;8.30;;;;;;;14.57;100.00;99336.06;5053731;28;20563;-68
2021/01/29 10:43:05;;;;;;;60.03;11.68;;;;;;;14.31;100.00;99315.16;5053363;28;20353;-66
2021/01/29 10:46:15;;;;;;;65.33;10.93;;;;;;;14.01;100.00;99337.22;5052881;28;20389;-66
2021/01/29 10:48:47;;;;;;;56.00;8.77;;;;;;;14.36;100.00;99333.22;5052632;28;20738;-66
2021/01/29 10:51:36;;;;;;;64.77;10.37;;;;;;;15.21;94.56;99336.94;5053073;28;20266;-67
2021/01/29 10:54:04;;;;;;;59.33;8.53;;;;;;;15.45;90.24;99325.69;5053249;28;20749;-66
2021/01/29 10:57:12;;;;;;;48.07;8.77;;;;;;;14.89;92.00;99337.88;5052601;28;20281;-62
2021/01/29 10:59:48;;;;;;;59.42;9.23;;;;;;;14.94;93.86;99345.19;5051286;28;20270;-66
2021/01/29 11:02:40;;;;;;;70.93;10.37;;;;;;;14.73;97.33;99353.91;5051982;28;20534;-67
2021/01/29 11:05:12;;;;;;;46.27;7.27;;;;;;;15.11;90.88;99345.81;5053674;28;20266;-66
2021/01/29 11:07:44;;;;;;;48.67;6.83;;;;;;;14.86;93.68;99346.47;5072108;28;20265;-66
2021/01/29 11:10:22;;;;;;;38.77;6.83;;;;;;;14.76;96.05;99348.03;5071563;28;20289;-67
2021/01/29 11:13:02;;;;;;;62.30;9.80;;;;;;;14.64;100.00;99355.47;5072197;28;20327;-67
2021/01/29 11:15:54;;;;;;;53.87;9.70;;;;;;;14.18;100.00;99340.59;5072694;28;20276;-66
2021/01/29 11:18:23;;;;;;;72.73;9.27;;;;;;;14.69;100.00;99349.31;5069549;28;20269;-65
2021/01/29 11:20:50;;;;;;;64.40;9.07;;;;;;;15.15;93.21;99354.97;5056608;28;20264;-66
2021/01/29 11:23:39;;;;;;;59.78;10.10;;;;;;;13.54;100.00;99355.56;5060880;28;20265;-66
2021/01/29 11:26:23;;;;;;;79.43;11.80;;;;;;;14.07;100.00;99357.72;5062128;28;20512;-67
2021/01/29 11:29:00;;;;;;;64.20;8.15;;;;;;;13.74;100.00;99360.34;5059958;28;20037;-64
2021/01/29 11:31:40;;;;;;;78.45;12.57;;;;;;;14.04;100.00;99366.25;5060146;28;20423;-66
2021/01/29 11:34:19;;;;;;;70.63;8.75;;;;;;;13.50;100.00;99369.75;5060094;28;20033;-66
2021/01/29 11:36:57;;;;;;;73.93;9.70;;;;;;;13.51;100.00;99361.44;5059122;28;20045;-66
2021/01/29 11:39:32;;;;;;;69.10;10.63;;;;;;;13.64;100.00;99376.34;5058415;28;20273;-65
2021/01/29 11:42:11;;;;;;;61.25;9.68;;;;;;;13.79;100.00;99361.47;5042240;28;20277;-66
2021/01/29 11:45:09;;;;;;;67.70;9.88;;;;;;;13.79;100.00;99364.94;5060622;28;20040;-66
2021/01/29 11:47:41;;;;;;;73.97;11.38;;;;;;;13.94;100.00;99379.63;5051722;28;20037;-68
2021/01/29 11:50:17;;;;;;;67.20;10.18;;;;;;;13.91;100.00;99371.00;5052495;28;20071;-68
2021/01/29 11:53:09;;;;;;;69.05;9.25;;;;;;;14.33;100.00;99369.47;5063518;28;20477;-66
2021/01/29 11:55:47;;;;;;;70.13;13.05;;;;;;;14.14;100.00;99373.63;5022069;28;20052;-64
2021/01/29 11:58:35;;;;;;;92.57;12.43;;;;;;;14.12;100.00;99375.75;5052575;28;20045;-67
2021/01/29 12:01:21;;;;;;;78.20;11.93;;;;;;;13.73;100.00;99384.78;5071952;28;20036;-67
2021/01/29 12:04:05;;;;;;;65.53;9.05;;;;;;;13.93;100.00;99383.38;5051114;28;20433;-67
2021/01/29 12:06:37;;;;;;;56.30;8.05;;;;;;;13.54;100.00;99374.34;5052023;28;20071;-68
2021/01/29 12:09:12;;;;;;;69.18;13.23;;;;;;;13.82;100.00;99383.25;5038090;28;20029;-66
2021/01/29 12:11:47;;;;;;;56.35;9.60;;;;;;;14.04;100.00;99372.47;5049902;28;20067;-68
2021/01/29 12:14:29;;;;;;;64.68;10.70;;;;;;;13.53;100.00;99372.72;5050943;28;20045;-68
2021/01/29 12:16:59;;;;;;;64.70;10.55;;;;;;;13.68;100.00;99373.97;5067688;28;20100;-69
2021/01/29 12:19:35;;;;;;;59.73;10.37;;;;;;;14.30;100.00;99367.31;5068966;28;20040;-63
2021/01/29 12:22:12;;;;;;;84.57;14.98;;;;;;;13.61;100.00;99374.16;5070881;28;20327;-68
2021/01/29 12:24:43;;;;;;;;;;;;;;;14.70;100.00;99359.78;5058290;28;20035;-67
2021/01/29 12:27:17;;;;;;;82.87;14.30;;;;;;;14.31;100.00;99365.44;5061288;28;19935;-66
2021/01/29 12:30:05;;;;;;;72.23;15.77;;;;;;;15.00;100.00;99363.78;5059248;28;20353;-67
2021/01/29 12:32:43;;;;;;;53.53;11.37;;;;;;;14.96;100.00;99362.66;5061997;28;20288;-67